createdAt,value
2022-09-05T00:00:05.974Z,13.29
2022-09-05T00:02:53.127Z,13.29
2022-09-05T00:06:02.180Z,13.24
2022-09-05T00:08:57.532Z,13.20
2022-09-05T00:11:46.854Z,13.14
2022-09-05T00:15:15.372Z,13.13
2022-09-05T00:19:03.879Z,13.13
2022-09-05T00:24:28.938Z,13.10
2022-09-05T00:24:32.505Z,13.12
2022-09-05T00:27:17.380Z,13.06
2022-09-05T00:31:08.116Z,13.06
2022-09-05T00:33:50.913Z,12.99
2022-09-05T00:36:17.532Z,12.94
2022-09-05T00:38:56.994Z,12.93
2022-09-05T00:41:24.397Z,12.89
2022-09-05T00:43:52.874Z,12.89
2022-09-05T00:46:26.892Z,12.89
2022-09-05T00:49:18.479Z,12.86
2022-09-05T00:51:58.717Z,12.84
2022-09-05T00:54:58.769Z,12.83
2022-09-05T00:58:10.130Z,12.79
2022-09-05T01:00:56.882Z,12.77
2022-09-05T01:03:30.890Z,12.75
2022-09-05T01:06:00.607Z,12.73
2022-09-05T01:08:37.267Z,12.70
2022-09-05T01:11:22.161Z,12.68
2022-09-05T01:14:00.151Z,12.63
2022-09-05T01:16:45.345Z,12.61
2022-09-05T01:19:30.772Z,12.57
2022-09-05T01:22:00.194Z,12.56
2022-09-05T01:24:37.020Z,12.55
2022-09-05T01:28:08.395Z,12.54
2022-09-05T01:30:46.422Z,12.53
2022-09-05T01:33:35.286Z,12.51
2022-09-05T01:36:26.070Z,12.49
2022-09-05T01:40:10.616Z,12.48
2022-09-05T01:42:08.397Z,12.48
2022-09-05T01:45:21.939Z,12.46
2022-09-05T01:47:54.717Z,12.45
2022-09-05T01:50:43.518Z,12.42
2022-09-05T01:53:11.469Z,12.39
2022-09-05T01:56:06.185Z,12.40
2022-09-05T01:59:07.985Z,12.38
2022-09-05T02:01:55.367Z,12.39
2022-09-05T02:04:56.060Z,12.39
2022-09-05T02:07:57.846Z,12.38
2022-09-05T02:10:43.169Z,12.35
2022-09-05T02:13:27.011Z,12.32
2022-09-05T02:16:19.440Z,12.28
2022-09-05T02:19:01.229Z,12.25
2022-09-05T02:21:40.709Z,12.25
2022-09-05T02:24:45.623Z,12.23
2022-09-05T02:27:43.650Z,12.22
2022-09-05T02:30:25.759Z,12.21
2022-09-05T02:32:58.703Z,12.20
2022-09-05T02:35:43.812Z,12.16
2022-09-05T02:43:57.229Z,12.16
2022-09-05T02:45:20.114Z,12.16
2022-09-05T02:45:24.219Z,12.06
2022-09-05T02:47:57.232Z,12.04
2022-09-05T02:53:59.298Z,12.03
2022-09-05T02:57:33.359Z,11.96
2022-09-05T02:57:37.619Z,11.98
2022-09-05T03:00:00.097Z,11.92
2022-09-05T03:02:37.334Z,11.95
2022-09-05T03:05:22.100Z,11.93
2022-09-05T03:08:05.703Z,11.92
2022-09-05T03:10:57.050Z,11.89
2022-09-05T03:13:53.884Z,11.88
2022-09-05T03:16:47.672Z,11.89
2022-09-05T03:19:46.693Z,11.85
2022-09-05T03:22:36.321Z,11.78
2022-09-05T03:25:38.781Z,11.73
2022-09-05T03:28:30.382Z,11.71
2022-09-05T03:31:20.311Z,11.73
2022-09-05T03:34:01.390Z,11.73
2022-09-05T03:37:05.613Z,11.72
2022-09-05T03:40:23.307Z,11.74
2022-09-05T03:43:02.072Z,11.75
2022-09-05T03:45:58.090Z,11.77
2022-09-05T03:48:39.898Z,11.73
2022-09-05T03:57:11.854Z,11.70
2022-09-05T03:57:20.405Z,11.71
2022-09-05T03:57:41.573Z,11.66
2022-09-05T04:00:25.769Z,11.66
2022-09-05T04:08:03.352Z,11.69
2022-09-05T04:08:27.685Z,11.66
2022-09-05T04:09:07.079Z,11.63
2022-09-05T04:11:56.235Z,11.63
2022-09-05T04:14:46.491Z,11.61
2022-09-05T04:17:37.340Z,11.59
2022-09-05T04:20:15.541Z,11.60
2022-09-05T04:23:19.403Z,11.61
2022-09-05T04:26:12.125Z,11.64
2022-09-05T04:28:44.637Z,11.66
2022-09-05T04:32:15.416Z,11.67
2022-09-05T04:35:22.711Z,11.65
2022-09-05T04:38:06.446Z,11.63
2022-09-05T04:40:39.522Z,11.61
2022-09-05T04:43:18.158Z,11.61
2022-09-05T04:46:05.196Z,11.62
2022-09-05T04:49:11.193Z,11.64
2022-09-05T04:51:37.709Z,11.63
2022-09-05T04:54:27.608Z,11.62
2022-09-05T04:57:22.788Z,11.67
2022-09-05T05:02:33.551Z,11.72
2022-09-05T05:06:11.542Z,11.75
2022-09-05T05:06:11.749Z,11.73
2022-09-05T05:09:12.405Z,11.76
2022-09-05T05:17:53.835Z,11.75
2022-09-05T05:18:14.373Z,11.74
2022-09-05T05:18:41.152Z,11.77
2022-09-05T05:21:30.130Z,11.80
2022-09-05T05:24:01.066Z,11.86
2022-09-05T05:26:45.760Z,11.88
2022-09-05T05:29:19.853Z,11.90
2022-09-05T05:31:53.602Z,11.92
2022-09-05T05:35:01.659Z,11.90
2022-09-05T05:37:31.410Z,11.92
2022-09-05T05:40:09.898Z,12.03
2022-09-05T05:42:41.821Z,12.25
2022-09-05T05:45:26.845Z,12.50
2022-09-05T05:48:01.695Z,12.84
2022-09-05T05:50:49.778Z,13.22
2022-09-05T05:53:45.483Z,13.35
2022-09-05T05:56:40.121Z,13.58
2022-09-05T05:59:25.646Z,13.76
2022-09-05T06:02:14.014Z,13.98
2022-09-05T06:05:07.938Z,14.37
2022-09-05T06:09:35.083Z,14.53
2022-09-05T06:14:59.315Z,14.76
2022-09-05T06:15:02.059Z,15.17
2022-09-05T06:17:28.299Z,15.40
2022-09-05T06:22:06.574Z,15.62
2022-09-05T06:23:40.115Z,16.01
2022-09-05T06:26:35.083Z,16.23
2022-09-05T06:29:20.619Z,16.42
2022-09-05T06:31:59.496Z,16.72
2022-09-05T06:34:35.963Z,16.96
2022-09-05T06:37:38.804Z,17.18
2022-09-05T06:40:11.995Z,17.37
2022-09-05T06:43:12.473Z,17.37
2022-09-05T06:45:51.263Z,17.70
2022-09-05T06:48:58.633Z,18.18
2022-09-05T06:52:26.327Z,18.61
2022-09-05T06:55:11.292Z,18.91
2022-09-05T06:58:02.893Z,19.13
2022-09-05T07:00:45.247Z,19.41
2022-09-05T07:03:37.946Z,19.53
2022-09-05T07:06:05.782Z,19.72
2022-09-05T07:08:59.190Z,19.96
2022-09-05T07:11:42.132Z,20.27
2022-09-05T07:14:23.213Z,20.43
2022-09-05T07:17:08.796Z,20.38
2022-09-05T07:19:46.531Z,20.46
2022-09-05T07:22:48.782Z,20.42
2022-09-05T07:25:19.383Z,20.28
2022-09-05T07:28:29.740Z,20.17
2022-09-05T07:30:51.286Z,19.98
2022-09-05T07:33:25.457Z,19.90
2022-09-05T07:35:54.640Z,20.05
2022-09-05T07:38:48.302Z,20.13
2022-09-05T07:41:29.315Z,20.13
2022-09-05T07:44:04.675Z,20.28
2022-09-05T07:46:38.574Z,20.31
2022-09-05T07:49:11.227Z,20.35
2022-09-05T07:56:51.806Z,20.59
2022-09-05T07:57:08.252Z,20.89
2022-09-05T07:57:50.681Z,21.10
2022-09-05T08:00:23.137Z,21.00
2022-09-05T08:02:55.160Z,21.11
2022-09-05T08:05:34.916Z,21.30
2022-09-05T08:08:08.066Z,21.45
2022-09-05T08:11:22.138Z,21.55
2022-09-05T08:13:46.503Z,21.81
2022-09-05T08:16:21.131Z,21.90
2022-09-05T08:18:50.588Z,22.06
2022-09-05T08:21:27.825Z,21.84
2022-09-05T08:24:12.879Z,22.14
2022-09-05T08:26:58.942Z,22.07
2022-09-05T08:29:37.001Z,22.01
2022-09-05T08:32:41.575Z,21.77
2022-09-05T08:35:21.089Z,21.34
2022-09-05T08:37:50.283Z,21.43
2022-09-05T08:40:26.538Z,21.65
2022-09-05T08:45:22.771Z,21.66
2022-09-05T08:46:44.007Z,21.77
2022-09-05T08:49:12.415Z,21.81
2022-09-05T08:51:55.802Z,21.78
2022-09-05T08:54:36.005Z,22.02
2022-09-05T08:57:21.484Z,22.02
2022-09-05T09:00:12.012Z,22.00
2022-09-05T09:03:22.534Z,21.85
2022-09-05T09:06:14.314Z,21.81
2022-09-05T09:09:06.447Z,21.91
2022-09-05T09:11:38.508Z,21.93
2022-09-05T09:14:37.499Z,22.02
2022-09-05T09:17:26.981Z,22.01
2022-09-05T09:20:07.459Z,21.70
2022-09-05T09:22:36.936Z,22.00
2022-09-05T09:25:26.403Z,22.19
2022-09-05T09:28:45.125Z,22.25
2022-09-05T09:31:22.916Z,22.18
2022-09-05T09:34:13.922Z,22.28
2022-09-05T09:37:24.161Z,22.34
2022-09-05T09:41:00.746Z,21.92
2022-09-05T09:44:07.823Z,22.48
2022-09-05T09:46:46.539Z,22.96
2022-09-05T09:49:38.015Z,23.30
2022-09-05T09:52:24.697Z,23.42
2022-09-05T09:55:17.340Z,22.78
2022-09-05T09:58:17.962Z,22.55
2022-09-05T10:01:20.153Z,22.94
2022-09-05T10:10:38.917Z,22.96
2022-09-05T10:10:55.284Z,22.82
2022-09-05T10:11:18.856Z,22.61
2022-09-05T10:14:24.214Z,22.36
2022-09-05T10:18:02.284Z,22.35
2022-09-05T10:20:41.661Z,22.54
2022-09-05T10:23:37.458Z,22.62
2022-09-05T10:26:45.315Z,22.76
2022-09-05T10:29:47.129Z,22.85
2022-09-05T10:35:11.087Z,22.69
2022-09-05T10:35:50.511Z,22.60
2022-09-05T10:38:29.206Z,22.53
2022-09-05T10:41:20.988Z,22.47
2022-09-05T10:44:04.041Z,22.41
2022-09-05T10:46:51.302Z,22.31
2022-09-05T10:49:30.287Z,22.03
2022-09-05T10:52:18.902Z,21.76
2022-09-05T10:55:18.797Z,21.35
2022-09-05T10:58:06.863Z,21.40
2022-09-05T11:02:28.364Z,21.54
2022-09-05T11:04:59.938Z,21.57
2022-09-05T11:08:11.685Z,21.67
2022-09-05T11:11:01.295Z,21.89
2022-09-05T11:13:33.791Z,22.05
2022-09-05T11:16:33.857Z,22.03
2022-09-05T11:19:40.786Z,22.00
2022-09-05T11:22:22.162Z,21.93
2022-09-05T11:24:59.337Z,22.03
2022-09-05T11:27:29.624Z,21.93
2022-09-05T11:30:02.899Z,21.98
2022-09-05T11:38:35.517Z,22.12
2022-09-05T11:39:50.250Z,21.95
2022-09-05T11:40:03.914Z,22.04
2022-09-05T11:42:41.493Z,21.80
2022-09-05T11:45:19.946Z,21.76
2022-09-05T11:48:08.260Z,21.89
2022-09-05T11:50:58.514Z,21.93
2022-09-05T11:53:43.686Z,22.02
2022-09-05T11:56:28.571Z,22.11
2022-09-05T11:59:13.856Z,22.32
2022-09-05T12:01:44.049Z,22.36
2022-09-05T12:04:33.295Z,22.18
2022-09-05T12:10:47.628Z,22.05
2022-09-05T12:14:01.054Z,22.07
2022-09-05T12:16:50.475Z,22.23
2022-09-05T12:22:35.204Z,22.33
2022-09-05T12:27:36.562Z,22.33
2022-09-05T12:29:26.024Z,22.35
2022-09-05T12:32:36.695Z,22.25
2022-09-05T12:36:04.117Z,22.24
2022-09-05T12:40:54.867Z,22.21
2022-09-05T12:41:35.535Z,22.11
2022-09-05T12:42:08.317Z,22.03
2022-09-05T12:42:08.495Z,22.31
2022-09-05T12:42:54.660Z,21.99
2022-09-05T12:45:50.379Z,21.91
2022-09-05T12:48:39.360Z,21.92
2022-09-05T12:51:11.629Z,21.94
2022-09-05T12:54:09.394Z,21.95
2022-09-05T13:02:15.972Z,21.75
2022-09-05T13:03:01.533Z,21.82
2022-09-05T13:03:08.336Z,21.97
2022-09-05T13:05:45.498Z,21.90
2022-09-05T13:08:21.323Z,21.95
2022-09-05T13:14:52.527Z,21.96
2022-09-05T13:14:59.080Z,21.90
2022-09-05T13:16:58.064Z,21.90
2022-09-05T13:19:34.167Z,21.93
2022-09-05T13:22:03.763Z,22.04
2022-09-05T13:24:38.726Z,22.16
2022-09-05T13:27:21.363Z,22.09
2022-09-05T13:30:23.832Z,22.10
2022-09-05T13:38:05.628Z,22.31
2022-09-05T13:38:11.251Z,22.18
2022-09-05T13:39:03.313Z,22.25
2022-09-05T13:41:34.788Z,22.21
2022-09-05T13:44:25.101Z,22.13
2022-09-05T13:47:05.133Z,22.23
2022-09-05T13:50:31.320Z,22.17
2022-09-05T13:53:19.708Z,22.17
2022-09-05T13:56:03.602Z,22.13
2022-09-05T13:58:56.680Z,22.16
2022-09-05T14:01:36.016Z,22.03
2022-09-05T14:07:46.672Z,21.99
2022-09-05T14:10:35.730Z,22.02
2022-09-05T14:13:14.373Z,22.03
2022-09-05T14:15:56.434Z,22.00
2022-09-05T14:18:25.993Z,22.12
2022-09-05T14:21:17.416Z,21.99
2022-09-05T14:23:55.965Z,21.91
2022-09-05T14:26:31.813Z,21.88
2022-09-05T14:29:14.200Z,21.91
2022-09-05T14:36:32.185Z,21.92
2022-09-05T14:37:55.738Z,21.84
2022-09-05T14:38:16.050Z,21.84
2022-09-05T14:41:11.262Z,21.88
2022-09-05T14:44:16.808Z,21.89
2022-09-05T14:47:35.398Z,21.85
2022-09-05T14:50:27.751Z,21.86
2022-09-05T14:56:51.498Z,21.86
2022-09-05T15:02:43.393Z,21.83
2022-09-05T15:02:56.335Z,21.84
2022-09-05T15:05:40.111Z,21.83
2022-09-05T15:08:18.297Z,21.86
2022-09-05T15:12:17.411Z,21.81
2022-09-05T15:13:57.373Z,21.81
2022-09-05T15:16:25.927Z,21.86
2022-09-05T15:18:53.461Z,21.81
2022-09-05T15:21:30.754Z,21.79
2022-09-05T15:24:04.352Z,21.83
2022-09-05T15:26:57.383Z,21.80
2022-09-05T15:29:26.776Z,21.75
2022-09-05T15:32:11.967Z,21.70
2022-09-05T15:34:39.145Z,21.63
2022-09-05T15:37:37.070Z,21.59
2022-09-05T15:40:23.454Z,21.52
2022-09-05T15:43:00.429Z,21.49
2022-09-05T15:45:32.174Z,21.50
2022-09-05T15:48:18.296Z,21.47
2022-09-05T15:50:51.483Z,21.44
2022-09-05T15:53:31.591Z,21.39
2022-09-05T15:56:24.527Z,21.37
2022-09-05T15:58:58.496Z,21.34
2022-09-05T16:01:59.823Z,21.28
2022-09-05T16:10:27.772Z,21.26
2022-09-05T16:10:42.033Z,21.23
2022-09-05T16:10:45.240Z,21.17
2022-09-05T16:13:12.491Z,21.09
2022-09-05T16:20:39.471Z,20.99
2022-09-05T16:23:20.767Z,20.93
2022-09-05T16:23:29.887Z,20.87
2022-09-05T16:24:24.716Z,20.76
2022-09-05T16:27:04.939Z,20.67
2022-09-05T16:29:38.962Z,20.58
2022-09-05T16:32:41.381Z,20.57
2022-09-05T16:35:18.509Z,20.55
2022-09-05T16:37:58.106Z,20.51
2022-09-05T16:40:28.417Z,20.49
2022-09-05T16:43:03.147Z,20.43
2022-09-05T16:45:41.682Z,20.39
2022-09-05T16:48:24.199Z,20.32
2022-09-05T16:51:15.359Z,20.30
2022-09-05T16:53:58.324Z,20.24
2022-09-05T16:56:35.079Z,20.16
2022-09-05T16:59:23.932Z,20.08
2022-09-05T17:02:10.789Z,19.99
2022-09-05T17:05:04.663Z,19.92
2022-09-05T17:07:44.245Z,19.81
2022-09-05T17:10:16.526Z,19.79
2022-09-05T17:12:43.616Z,19.75
2022-09-05T17:15:10.249Z,19.71
2022-09-05T17:18:21.278Z,19.67
2022-09-05T17:20:37.038Z,19.63
2022-09-05T17:29:20.724Z,19.57
2022-09-05T17:29:26.024Z,19.44
2022-09-05T17:29:30.533Z,19.51
2022-09-05T17:31:58.020Z,19.39
2022-09-05T17:34:43.791Z,19.37
2022-09-05T17:37:32.662Z,19.30
2022-09-05T17:40:17.939Z,19.21
2022-09-05T17:42:56.853Z,19.09
2022-09-05T17:45:45.323Z,19.07
2022-09-05T17:48:36.081Z,18.96
2022-09-05T17:51:02.854Z,18.92
2022-09-05T17:53:33.346Z,18.94
2022-09-05T17:55:59.992Z,18.94
2022-09-05T17:58:48.902Z,18.91
2022-09-05T18:01:27.443Z,18.86
2022-09-05T18:04:09.758Z,18.85
2022-09-05T18:09:37.028Z,18.81
2022-09-05T18:12:34.505Z,18.79
2022-09-05T18:15:35.281Z,18.80
2022-09-05T18:18:05.472Z,18.80
2022-09-05T18:20:48.813Z,18.81
2022-09-05T18:23:39.170Z,18.76
2022-09-05T18:29:57.458Z,18.77
2022-09-05T18:32:12.089Z,18.77
2022-09-05T18:34:40.745Z,18.75
2022-09-05T18:37:36.749Z,18.71
2022-09-05T18:40:09.762Z,18.72
2022-09-05T18:42:57.330Z,18.68
2022-09-05T18:45:38.760Z,18.62
2022-09-05T18:48:29.992Z,18.59
2022-09-05T18:51:15.213Z,18.62
2022-09-05T18:53:47.499Z,18.59
2022-09-05T18:57:09.708Z,18.61
2022-09-05T18:59:34.496Z,18.58
2022-09-05T19:02:08.993Z,18.58
2022-09-05T19:05:01.284Z,18.58
2022-09-05T19:07:59.520Z,18.59
2022-09-05T19:10:34.581Z,18.58
2022-09-05T19:13:19.589Z,18.61
2022-09-05T19:16:03.683Z,18.61
2022-09-05T19:19:06.281Z,18.60
2022-09-05T19:21:33.782Z,18.60
2022-09-05T19:24:08.315Z,18.59
2022-09-05T19:26:35.297Z,18.65
2022-09-05T19:36:52.297Z,18.61
2022-09-05T19:36:57.821Z,18.62
2022-09-05T19:37:23.968Z,18.62
2022-09-05T19:37:44.522Z,18.60
2022-09-05T19:47:25.531Z,18.62
2022-09-05T19:47:35.373Z,18.63
2022-09-05T19:47:45.142Z,18.61
2022-09-05T19:49:12.536Z,18.56
2022-09-05T19:51:41.353Z,18.55
2022-09-05T19:54:26.529Z,18.51
2022-09-05T19:56:57.638Z,18.47
2022-09-05T19:59:40.421Z,18.43
2022-09-05T20:02:33.147Z,18.43
2022-09-05T20:05:01.946Z,18.40
2022-09-05T20:07:31.616Z,18.35
2022-09-05T20:10:02.167Z,18.31
2022-09-05T20:12:37.133Z,18.25
2022-09-05T20:15:36.092Z,18.11
2022-09-05T20:18:28.154Z,18.05
2022-09-05T20:21:06.152Z,18.03
2022-09-05T20:23:33.494Z,18.01
2022-09-05T20:26:01.440Z,18.01
2022-09-05T20:28:35.835Z,17.96
2022-09-05T20:31:08.510Z,17.94
2022-09-05T20:33:53.934Z,17.89
2022-09-05T20:43:12.405Z,17.89
2022-09-05T20:43:18.924Z,17.86
2022-09-05T20:43:33.017Z,17.87
2022-09-05T20:46:24.287Z,17.84
2022-09-05T20:54:09.274Z,17.86
2022-09-05T20:54:15.840Z,17.88
2022-09-05T20:54:39.560Z,17.83
2022-09-05T20:57:18.301Z,17.75
2022-09-05T20:59:47.339Z,17.67
2022-09-05T21:02:27.696Z,17.68
2022-09-05T21:05:20.787Z,17.65
2022-09-05T21:07:53.177Z,17.59
2022-09-05T21:10:55.544Z,17.55
2022-09-05T21:13:36.281Z,17.49
2022-09-05T21:16:21.434Z,17.49
2022-09-05T21:18:50.789Z,17.45
2022-09-05T21:21:30.175Z,17.44
2022-09-05T21:23:59.621Z,17.43
2022-09-05T21:26:36.087Z,17.41
2022-09-05T21:29:12.984Z,17.42
2022-09-05T21:31:54.971Z,17.45
2022-09-05T21:34:29.866Z,17.47
2022-09-05T21:37:07.245Z,17.51
2022-09-05T21:39:59.528Z,17.54
2022-09-05T21:45:16.717Z,17.54
2022-09-05T21:47:48.741Z,17.53
2022-09-05T21:48:06.718Z,17.49
2022-09-05T21:50:39.747Z,17.47
2022-09-05T21:53:56.725Z,17.39
2022-09-05T21:59:25.343Z,17.37
2022-09-05T21:59:26.555Z,17.33
2022-09-05T22:01:51.071Z,17.34
2022-09-05T22:04:19.116Z,17.26
2022-09-05T22:06:48.647Z,17.25
2022-09-05T22:09:21.193Z,17.27
2022-09-05T22:11:51.406Z,17.24
2022-09-05T22:14:23.897Z,17.21
2022-09-05T22:16:57.721Z,17.23
2022-09-05T22:19:37.818Z,17.25
2022-09-05T22:22:16.409Z,17.25
2022-09-05T22:25:04.933Z,17.27
2022-09-05T22:27:34.675Z,17.29
2022-09-05T22:30:04.456Z,17.33
2022-09-05T22:32:34.358Z,17.34
2022-09-05T22:35:27.506Z,17.35
2022-09-05T22:37:59.813Z,17.38
2022-09-05T22:40:28.811Z,17.32
2022-09-05T22:42:57.365Z,17.32
2022-09-05T22:45:24.799Z,17.33
2022-09-05T22:47:51.540Z,17.34
2022-09-05T22:50:18.810Z,17.34
2022-09-05T22:52:45.488Z,17.32
2022-09-05T22:55:12.430Z,17.32
2022-09-05T22:57:40.558Z,17.31
2022-09-05T23:00:08.494Z,17.31
2022-09-05T23:02:35.292Z,17.31
2022-09-05T23:05:03.387Z,17.29
2022-09-05T23:07:30.158Z,17.24
2022-09-05T23:09:56.899Z,17.21
2022-09-05T23:12:23.684Z,17.18
2022-09-05T23:14:50.457Z,17.17
2022-09-05T23:17:17.369Z,17.17
2022-09-05T23:19:44.250Z,17.16
2022-09-05T23:22:10.964Z,17.20
2022-09-05T23:24:37.684Z,17.18
2022-09-05T23:27:04.403Z,17.14
2022-09-05T23:29:31.091Z,17.13
2022-09-05T23:31:57.796Z,17.11
2022-09-05T23:34:25.644Z,17.08
2022-09-05T23:36:52.581Z,17.07
2022-09-05T23:39:19.353Z,17.02
2022-09-05T23:41:46.053Z,16.96
2022-09-05T23:44:12.771Z,16.94
2022-09-05T23:46:40.462Z,16.91
2022-09-05T23:49:07.529Z,16.87
2022-09-05T23:51:34.273Z,16.85
2022-09-05T23:54:01.011Z,16.85
2022-09-05T23:56:27.715Z,16.89
2022-09-05T23:58:54.463Z,16.91
